Terminal Aerodrome Forecast
Issued by NWS Quad Cities IA IL

Home | Current Version | Previous Version | Text Only | Print | Product List | Glossary On
Versions: 1 2 3 4 5 6 7 8 9 10 11 12 13 14 15 16 17
000
FTUS43 KDVN 280910 AAA
TAFMLI
TAF AMD
KMLI 280910Z 2809/0106 18013G18KT P6SM VCTS BKN050CB BKN080
      TEMPO 2809/2813 3SM TSRA BKN030CB
     FM281300 18011KT 5SM -SHRA BR VCTS OVC010CB
     FM281600 19012KT P6SM BKN020
     FM282200 22012KT 4SM -SHRA VCTS OVC012CB
     FM010000 30007KT P6SM OVC015=

USA.gov is the U.S. government's official web portal to all federal, state and local government web resources and services.